Time;durP1;ratioP1;P1;durP2;ratioP2;P2;SDS_P1;SDS_P2;PMS_P1;PMS_P2;Temp;Humidity;BMP_temperature;BMP_pressure;BME280_temperature;BME280_humidity;BME280_pressure;Samples;Min_cycle;Max_cycle;Signal;HPM_P1;HPM_P2
2023/01/15 00:01:20;;;;;;;4.60;2.80;;;;;;;9.56;100.00;98830.13;5028968;28;20246;-73
2023/01/15 00:03:48;;;;;;;3.20;2.70;;;;;;;9.53;100.00;98833.88;5023212;28;20210;-72
2023/01/15 00:06:15;;;;;;;3.42;2.75;;;;;;;9.59;100.00;98838.00;5022979;28;20198;-72
2023/01/15 00:08:42;;;;;;;3.85;3.17;;;;;;;9.56;100.00;98812.16;5021660;28;20187;-71
2023/01/15 00:11:09;;;;;;;3.05;2.70;;;;;;;9.57;100.00;98816.59;5021092;28;20229;-71
2023/01/15 00:13:35;;;;;;;3.75;2.47;;;;;;;9.61;100.00;98825.31;5022347;28;20312;-72
2023/01/15 00:16:03;;;;;;;3.67;2.65;;;;;;;9.60;100.00;98823.59;5023077;28;20232;-71
2023/01/15 00:18:30;;;;;;;2.85;2.50;;;;;;;9.63;100.00;98815.31;5021169;28;20199;-72
2023/01/15 00:21:00;;;;;;;2.95;2.65;;;;;;;9.67;100.00;98819.50;5022290;28;20285;-71
2023/01/15 00:28:58;;;;;;;3.75;2.60;;;;;;;9.66;100.00;98806.19;5014960;28;20227;-72
2023/01/15 00:31:25;;;;;;;3.50;2.70;;;;;;;9.66;100.00;98807.06;5020781;28;20286;-71
2023/01/15 00:33:52;;;;;;;2.90;2.33;;;;;;;9.66;100.00;98807.06;5020786;28;20620;-73
2023/01/15 00:36:20;;;;;;;2.70;2.20;;;;;;;9.63;100.00;98787.56;5021049;28;20209;-73
2023/01/15 00:38:46;;;;;;;3.35;1.90;;;;;;;9.67;100.00;98794.47;5002539;28;20271;-73
2023/01/15 00:41:13;;;;;;;2.92;1.67;;;;;;;9.68;100.00;98801.56;5008572;28;20218;-72
2023/01/15 00:43:39;;;;;;;3.28;1.60;;;;;;;9.64;100.00;98797.38;5026383;28;20262;-71
2023/01/15 00:46:07;;;;;;;3.15;1.70;;;;;;;9.66;100.00;98803.50;5029372;28;20237;-72
2023/01/15 00:48:34;;;;;;;2.72;1.90;;;;;;;9.62;100.00;98786.72;5025782;28;20229;-72
2023/01/15 00:51:00;;;;;;;3.15;1.60;;;;;;;9.66;100.00;98811.56;5024094;28;20281;-72
2023/01/15 00:53:28;;;;;;;2.50;1.50;;;;;;;9.63;100.00;98807.25;5023490;28;20266;-72
2023/01/15 00:55:55;;;;;;;3.28;1.40;;;;;;;9.63;100.00;98815.31;5022496;28;20204;-72
2023/01/15 00:58:22;;;;;;;2.13;1.33;;;;;;;9.67;100.00;98808.75;5025686;28;20194;-72
2023/01/15 01:00:54;;;;;;;1.73;1.55;;;;;;;9.64;100.00;98811.66;5033896;28;20703;-70
2023/01/15 01:03:21;;;;;;;1.80;1.40;;;;;;;9.64;100.00;98808.13;5033190;28;20191;-72
2023/01/15 01:05:47;;;;;;;2.00;1.50;;;;;;;9.62;100.00;98805.53;5031787;28;20191;-71
2023/01/15 01:08:15;;;;;;;3.63;1.23;;;;;;;9.59;100.00;98809.28;5026816;28;20325;-73
2023/01/15 01:10:43;;;;;;;2.72;1.70;;;;;;;9.60;100.00;98808.31;5024258;28;20225;-72
2023/01/15 01:13:10;;;;;;;3.08;2.38;;;;;;;9.62;100.00;98810.91;5023782;28;20201;-73
2023/01/15 01:15:37;;;;;;;2.13;1.50;;;;;;;9.62;100.00;98820.81;5022757;28;20297;-71
2023/01/15 01:18:05;;;;;;;1.92;1.38;;;;;;;9.66;100.00;98806.19;5023949;28;20191;-73
2023/01/15 01:20:33;;;;;;;1.90;1.35;;;;;;;9.63;100.00;98806.38;5023566;28;20294;-72
2023/01/15 01:23:00;;;;;;;1.75;1.20;;;;;;;9.64;100.00;98819.72;5019441;28;20614;-72
2023/01/15 01:25:26;;;;;;;2.58;1.30;;;;;;;9.67;100.00;98807.91;5017999;28;20298;-73
2023/01/15 01:27:54;;;;;;;1.83;0.90;;;;;;;9.71;100.00;98822.88;5016157;28;20233;-71
2023/01/15 01:30:21;;;;;;;1.83;1.25;;;;;;;9.75;100.00;98838.69;5017114;28;20632;-72
2023/01/15 01:32:47;;;;;;;1.30;0.90;;;;;;;9.74;100.00;98831.56;5018702;28;20215;-73
2023/01/15 01:35:14;;;;;;;1.67;0.90;;;;;;;9.67;100.00;98824.03;5016876;28;20289;-72
2023/01/15 01:37:40;;;;;;;1.55;0.80;;;;;;;9.49;100.00;98831.50;5015300;28;20549;-72
2023/01/15 01:40:08;;;;;;;2.60;0.80;;;;;;;9.35;100.00;98832.41;5015035;28;20245;-72
2023/01/15 01:42:35;;;;;;;1.10;0.50;;;;;;;9.30;100.00;98829.16;5016850;28;20201;-72
2023/01/15 01:45:13;;;;;;;1.10;0.60;;;;;;;9.20;100.00;98831.56;5015754;28;20210;-73
2023/01/15 01:47:40;;;;;;;1.33;0.70;;;;;;;9.16;100.00;98833.59;5015007;28;20305;-73
2023/01/15 01:50:11;;;;;;;2.15;0.80;;;;;;;9.16;100.00;98838.97;5015317;28;20214;-72
2023/01/15 01:52:44;;;;;;;1.30;0.80;;;;;;;9.12;100.00;98832.06;5015815;28;20226;-73
2023/01/15 01:55:14;;;;;;;3.40;0.60;;;;;;;9.12;100.00;98833.91;4996038;28;20286;-72
2023/01/15 01:57:42;;;;;;;2.38;0.90;;;;;;;9.05;100.00;98838.78;5010981;28;20241;-71
2023/01/15 02:00:12;;;;;;;1.20;0.60;;;;;;;9.04;100.00;98839.75;5014788;28;20214;-72
2023/01/15 02:02:40;;;;;;;2.40;0.70;;;;;;;8.97;100.00;98850.00;5013961;28;20206;-72
2023/01/15 02:05:08;;;;;;;4.07;0.98;;;;;;;8.92;100.00;98859.31;5014133;28;20577;-73
2023/01/15 02:07:35;;;;;;;1.95;0.82;;;;;;;8.89;100.00;98863.06;5014354;28;20685;-72
2023/01/15 02:10:02;;;;;;;1.83;0.60;;;;;;;8.88;100.00;98865.84;5013921;28;20228;-71
2023/01/15 02:12:35;;;;;;;1.30;0.60;;;;;;;8.81;100.00;98873.41;5014359;28;20256;-72
2023/01/15 02:15:12;;;;;;;1.38;0.60;;;;;;;8.83;100.00;98873.31;5013742;28;20196;-72
2023/01/15 02:17:47;;;;;;;2.70;0.70;;;;;;;8.85;100.00;98869.59;5014234;28;20187;-73
2023/01/15 02:20:29;;;;;;;1.42;0.80;;;;;;;8.80;100.00;98857.44;5013922;28;20225;-72
2023/01/15 02:23:20;;;;;;;2.10;0.60;;;;;;;8.82;100.00;98861.75;5015795;28;20635;-71
2023/01/15 02:26:26;;;;;;;1.75;0.70;;;;;;;8.78;100.00;98884.34;5015509;28;20222;-71
2023/01/15 02:28:57;;;;;;;4.47;0.90;;;;;;;8.78;100.00;98878.97;5014202;28;20265;-72
2023/01/15 02:31:29;;;;;;;1.40;0.80;;;;;;;8.76;100.00;98891.63;5024329;28;20275;-73
2023/01/15 02:33:58;;;;;;;1.40;0.70;;;;;;;8.79;100.00;98909.38;5027626;28;20194;-72
2023/01/15 02:36:28;;;;;;;1.38;0.68;;;;;;;8.76;100.00;98903.22;5028390;28;20234;-72
2023/01/15 02:38:58;;;;;;;1.33;0.80;;;;;;;8.79;100.00;98909.38;5028049;28;20309;-71
2023/01/15 02:41:29;;;;;;;1.77;0.70;;;;;;;8.70;100.00;98892.88;5026294;28;20277;-72
2023/01/15 02:43:59;;;;;;;1.10;0.60;;;;;;;8.51;100.00;98903.00;5026719;28;20197;-72
2023/01/15 02:46:29;;;;;;;1.30;0.60;;;;;;;8.39;100.00;98901.03;5024278;28;20200;-72
2023/01/15 02:48:59;;;;;;;1.33;0.60;;;;;;;8.36;100.00;98916.34;5024292;28;20213;-72
2023/01/15 02:51:30;;;;;;;1.50;0.60;;;;;;;8.23;100.00;98914.50;5024697;28;20279;-71
2023/01/15 02:54:01;;;;;;;1.10;0.55;;;;;;;8.18;100.00;98912.09;5022729;28;20621;-73
2023/01/15 02:56:34;;;;;;;1.10;0.60;;;;;;;8.11;100.00;98919.63;5018370;28;20657;-72
2023/01/15 02:59:06;;;;;;;1.20;0.60;;;;;;;8.09;100.00;98918.00;5016683;28;20205;-72
2023/01/15 03:01:39;;;;;;;1.52;0.80;;;;;;;8.06;100.00;98924.41;5016771;28;20191;-72
2023/01/15 03:04:13;;;;;;;1.25;0.60;;;;;;;8.06;100.00;98929.75;5018738;28;20636;-71
2023/01/15 03:06:46;;;;;;;1.20;0.60;;;;;;;8.11;100.00;98938.38;5018430;28;20199;-72
2023/01/15 03:09:14;;;;;;;1.30;0.60;;;;;;;8.09;100.00;98939.44;5018459;28;20619;-71
2023/01/15 03:11:48;;;;;;;2.00;0.70;;;;;;;8.07;100.00;98941.34;5018130;28;20210;-72
2023/01/15 03:14:20;;;;;;;1.30;0.70;;;;;;;8.08;100.00;98935.91;5016351;28;20191;-71
2023/01/15 03:16:49;;;;;;;4.20;0.70;;;;;;;8.11;100.00;98935.72;5016948;28;20470;-71
2023/01/15 03:19:24;;;;;;;1.08;0.50;;;;;;;8.10;100.00;98941.19;5016823;28;20316;-72
2023/01/15 03:21:56;;;;;;;1.50;0.60;;;;;;;8.07;100.00;98939.56;5017046;28;20253;-72
2023/01/15 03:24:28;;;;;;;1.60;0.73;;;;;;;8.12;100.00;98939.28;5018852;28;20193;-72
2023/01/15 03:26:55;;;;;;;1.10;0.60;;;;;;;8.10;100.00;98949.22;5020124;28;20190;-70
2023/01/15 03:29:25;;;;;;;2.10;0.70;;;;;;;7.98;100.00;98948.09;5021799;28;20309;-70
2023/01/15 03:31:52;;;;;;;1.77;0.60;;;;;;;7.94;100.00;98950.09;5023388;28;20678;-71
2023/01/15 03:34:19;;;;;;;1.48;0.60;;;;;;;7.93;100.00;98958.22;5024842;28;20305;-72
2023/01/15 03:36:45;;;;;;;1.20;0.60;;;;;;;7.87;100.00;98959.47;5026025;28;20194;-71
2023/01/15 03:39:15;;;;;;;10.93;7.00;;;;;;;7.84;100.00;98953.41;5024686;28;20211;-72
2023/01/15 03:41:55;;;;;;;6.18;1.80;;;;;;;7.67;100.00;98974.00;5029063;28;20218;-72
2023/01/15 03:44:31;;;;;;;1.20;0.60;;;;;;;7.64;100.00;98971.50;5009816;28;20219;-71
2023/01/15 03:47:09;;;;;;;1.20;0.50;;;;;;;7.47;100.00;98985.81;5029016;28;20617;-73
2023/01/15 03:49:50;;;;;;;1.10;0.60;;;;;;;7.44;100.00;98990.47;5028046;28;20232;-70
2023/01/15 03:52:24;;;;;;;1.10;0.50;;;;;;;7.38;100.00;98990.81;5030036;28;20202;-70
2023/01/15 03:54:55;;;;;;;1.10;0.60;;;;;;;7.30;100.00;98984.06;5031499;28;20193;-73
2023/01/15 03:57:29;;;;;;;1.50;0.63;;;;;;;7.28;100.00;98991.31;5030779;28;20203;-72
2023/01/15 04:00:01;;;;;;;2.90;1.35;;;;;;;7.29;100.00;99010.91;5029318;28;20730;-71
2023/01/15 04:02:30;;;;;;;3.88;0.60;;;;;;;7.09;100.00;98995.91;5029423;28;20218;-72
2023/01/15 04:04:57;;;;;;;1.70;0.82;;;;;;;7.04;100.00;98990.81;5029835;28;20278;-72
2023/01/15 04:07:25;;;;;;;1.48;0.80;;;;;;;6.98;100.00;98993.81;5030395;28;20206;-72
2023/01/15 04:09:52;;;;;;;1.20;0.60;;;;;;;6.95;100.00;99001.16;5029021;28;20232;-71
2023/01/15 04:12:19;;;;;;;1.60;0.90;;;;;;;6.83;100.00;98998.19;5027562;28;20205;-72
2023/01/15 04:14:45;;;;;;;1.20;0.73;;;;;;;6.83;100.00;99006.22;5032100;28;20263;-71
2023/01/15 04:17:13;;;;;;;1.52;0.90;;;;;;;6.84;100.00;99009.75;5032380;28;20210;-72
2023/01/15 04:19:40;;;;;;;1.30;0.60;;;;;;;6.82;100.00;99003.59;5030105;28;20225;-72
2023/01/15 04:22:06;;;;;;;1.70;0.60;;;;;;;6.77;100.00;99011.00;5030552;28;20203;-72
2023/01/15 04:24:33;;;;;;;1.20;0.60;;;;;;;6.80;100.00;99018.88;5032106;28;20573;-72
2023/01/15 04:27:00;;;;;;;1.50;0.65;;;;;;;6.79;100.00;99025.19;5031115;28;20194;-72
2023/01/15 04:29:26;;;;;;;1.73;0.70;;;;;;;6.74;100.00;99028.09;5030190;28;20227;-71
2023/01/15 04:31:56;;;;;;;1.20;0.70;;;;;;;6.79;100.00;99042.09;5032143;28;20230;-72
2023/01/15 04:34:24;;;;;;;1.60;0.60;;;;;;;6.81;100.00;99042.88;5037152;28;20250;-73
2023/01/15 04:36:51;;;;;;;1.73;0.70;;;;;;;6.74;100.00;99040.59;5037782;28;20218;-71
2023/01/15 04:39:17;;;;;;;1.10;0.60;;;;;;;6.73;100.00;99047.75;5037346;28;20233;-72
2023/01/15 04:44:28;;;;;;;1.30;0.63;;;;;;;6.69;100.00;99046.16;5012990;28;20608;-72
2023/01/15 04:46:56;;;;;;;1.10;0.50;;;;;;;6.71;100.00;99051.44;5024660;28;20294;-72
2023/01/15 04:49:24;;;;;;;1.65;0.70;;;;;;;6.63;100.00;99042.00;5024619;28;20306;-73
2023/01/15 04:51:50;;;;;;;1.10;0.60;;;;;;;6.61;100.00;99046.56;5029061;28;20293;-71
2023/01/15 04:54:18;;;;;;;1.20;0.70;;;;;;;6.57;100.00;99049.47;5022092;28;20233;-73
2023/01/15 04:56:46;;;;;;;1.30;0.70;;;;;;;6.46;100.00;99066.91;5021948;28;20289;-72
2023/01/15 04:59:14;;;;;;;2.78;0.75;;;;;;;6.50;100.00;99077.47;5025190;28;20203;-72
2023/01/15 05:01:43;;;;;;;2.08;0.60;;;;;;;6.41;100.00;99076.97;5017793;28;20670;-73
2023/01/15 05:04:10;;;;;;;1.17;0.60;;;;;;;6.42;100.00;99073.38;5024429;28;20220;-72
2023/01/15 05:06:38;;;;;;;1.50;0.70;;;;;;;6.44;100.00;99068.81;5021147;28;20213;-71
2023/01/15 05:09:08;;;;;;;1.42;0.60;;;;;;;6.48;100.00;99065.03;5016489;28;20294;-72
2023/01/15 05:11:35;;;;;;;1.20;0.50;;;;;;;6.41;100.00;99066.28;5018288;28;20275;-72
2023/01/15 05:14:01;;;;;;;3.15;0.70;;;;;;;6.36;100.00;99056.78;5023329;28;20313;-73
2023/01/15 05:16:29;;;;;;;1.42;0.60;;;;;;;6.33;100.00;99044.44;5022733;28;20229;-74
2023/01/15 05:18:59;;;;;;;1.20;0.63;;;;;;;6.34;100.00;99069.34;5020309;28;20225;-72
2023/01/15 05:21:27;;;;;;;2.50;0.80;;;;;;;6.21;100.00;99064.59;5046187;22;20229;-75
2023/01/15 05:23:56;;;;;;;1.60;0.70;;;;;;;6.18;100.00;99055.88;5039649;28;20201;-76
2023/01/15 05:26:24;;;;;;;1.63;0.70;;;;;;;6.19;100.00;99057.59;5043988;28;20291;-75
2023/01/15 05:28:53;;;;;;;1.10;0.60;;;;;;;6.03;100.00;99076.19;5052867;28;20225;-76
2023/01/15 05:31:19;;;;;;;1.30;0.60;;;;;;;5.79;100.00;99081.72;5053493;28;20236;-77
2023/01/15 05:33:47;;;;;;;2.28;0.65;;;;;;;5.73;100.00;99087.34;5053258;28;20577;-76
2023/01/15 05:36:16;;;;;;;1.10;0.60;;;;;;;5.76;100.00;99097.00;5053408;28;20197;-76
2023/01/15 05:38:42;;;;;;;1.20;0.70;;;;;;;5.72;100.00;99101.66;5053019;28;20201;-78
2023/01/15 05:43:57;;;;;;;1.52;0.90;;;;;;;5.66;100.00;99112.59;5052318;28;20207;-77
2023/01/15 05:46:23;;;;;;;1.25;0.70;;;;;;;5.68;100.00;99102.72;5053050;28;20686;-76
2023/01/15 05:48:50;;;;;;;1.30;0.70;;;;;;;5.71;100.00;99096.38;5050568;28;20225;-75
2023/01/15 05:51:17;;;;;;;2.05;0.60;;;;;;;5.78;100.00;99105.81;5034509;28;20229;-75
2023/01/15 05:53:43;;;;;;;2.33;0.65;;;;;;;5.80;100.00;99107.47;5041866;28;20217;-76
2023/01/15 05:56:11;;;;;;;4.10;0.70;;;;;;;5.76;100.00;99113.03;5048574;28;20232;-75
2023/01/15 05:58:38;;;;;;;2.40;0.70;;;;;;;5.66;100.00;99115.28;5035366;28;20198;-74
2023/01/15 06:01:07;;;;;;;1.33;0.77;;;;;;;5.78;100.00;99119.19;5034958;28;20305;-75
2023/01/15 06:03:33;;;;;;;1.58;0.90;;;;;;;5.69;100.00;99119.59;5034570;28;20288;-77
2023/01/15 06:06:00;;;;;;;2.50;1.08;;;;;;;5.72;100.00;99119.47;5034890;28;20202;-77
2023/01/15 06:08:26;;;;;;;2.85;0.80;;;;;;;5.69;100.00;99117.78;5033603;28;20232;-77
2023/01/15 06:10:53;;;;;;;3.63;0.85;;;;;;;5.63;100.00;99126.97;5035444;28;20210;-75
2023/01/15 06:13:21;;;;;;;1.92;1.08;;;;;;;5.71;100.00;99133.75;5035177;28;20212;-76
2023/01/15 06:15:48;;;;;;;1.30;0.98;;;;;;;5.79;100.00;99131.63;5034259;28;20205;-76
2023/01/15 06:18:14;;;;;;;1.70;0.80;;;;;;;5.81;100.00;99124.38;5033353;28;20205;-76
2023/01/15 06:20:42;;;;;;;1.30;0.70;;;;;;;5.84;100.00;99113.56;5048567;28;20221;-77
2023/01/15 06:23:09;;;;;;;1.73;0.70;;;;;;;5.78;100.00;99114.69;5033387;28;20651;-76
2023/01/15 06:25:36;;;;;;;1.50;0.80;;;;;;;5.69;100.00;99099.09;5015334;28;20644;-75
2023/01/15 06:28:03;;;;;;;4.13;0.90;;;;;;;5.53;100.00;99109.63;5016167;28;20223;-76
2023/01/15 06:30:31;;;;;;;2.80;1.23;;;;;;;5.45;100.00;99119.78;5035407;28;20302;-76
2023/01/15 06:32:57;;;;;;;1.85;0.70;;;;;;;5.44;100.00;99118.91;5032823;28;20205;-76
2023/01/15 06:35:24;;;;;;;2.80;0.98;;;;;;;5.30;100.00;99120.47;5032666;28;20292;-76
2023/01/15 06:37:51;;;;;;;3.20;1.73;;;;;;;5.22;100.00;99119.00;5031908;28;20205;-76
2023/01/15 06:40:18;;;;;;;4.70;1.15;;;;;;;5.27;100.00;99137.50;5038938;28;20304;-76
2023/01/15 06:48:20;;;;;;;1.42;0.93;;;;;;;5.14;100.00;99137.16;5011983;28;20699;-75
2023/01/15 06:50:47;;;;;;;2.15;0.70;;;;;;;5.13;100.00;99151.44;5012609;28;20241;-76
2023/01/15 06:53:13;;;;;;;2.00;0.88;;;;;;;5.17;100.00;99163.69;5013942;28;20201;-76
2023/01/15 06:55:40;;;;;;;1.40;0.70;;;;;;;5.24;100.00;99164.28;5013766;28;20840;-71
2023/01/15 06:58:06;;;;;;;3.92;2.50;;;;;;;5.46;100.00;99164.25;5011994;28;20213;-70
2023/01/15 07:00:34;;;;;;;7.93;4.90;;;;;;;5.40;100.00;99159.16;5034075;28;20682;-76
2023/01/15 07:03:01;;;;;;;2.30;0.90;;;;;;;5.30;100.00;99163.19;5060627;28;20284;-75
2023/01/15 07:05:28;;;;;;;2.20;0.70;;;;;;;5.20;100.00;99163.59;5062051;28;20201;-76
2023/01/15 07:07:54;;;;;;;1.80;0.95;;;;;;;5.15;100.00;99168.22;5056511;28;20295;-75
2023/01/15 07:10:21;;;;;;;2.40;0.93;;;;;;;5.17;100.00;99158.34;5057850;28;20233;-75
2023/01/15 07:12:48;;;;;;;1.48;0.98;;;;;;;5.11;100.00;99158.66;5042831;28;20209;-75
2023/01/15 07:15:14;;;;;;;2.47;0.90;;;;;;;5.12;100.00;99168.38;5041583;28;20256;-75
2023/01/15 07:17:42;;;;;;;1.50;0.80;;;;;;;5.11;100.00;99169.31;5044528;28;20261;-75
2023/01/15 07:20:10;;;;;;;4.90;0.90;;;;;;;5.04;100.00;99166.97;5041039;28;20230;-74
2023/01/15 07:22:37;;;;;;;1.50;0.80;;;;;;;5.04;100.00;99178.50;5039119;28;20288;-75
2023/01/15 07:25:04;;;;;;;1.50;0.80;;;;;;;5.13;100.00;99172.78;5039586;28;20201;-74
2023/01/15 07:27:30;;;;;;;1.83;0.60;;;;;;;5.12;100.00;99184.38;5037332;28;20464;-76
2023/01/15 07:29:57;;;;;;;2.08;0.70;;;;;;;5.12;100.00;99183.53;5035982;28;20253;-76
2023/01/15 07:32:24;;;;;;;1.27;0.70;;;;;;;5.01;100.00;99195.50;5036433;28;20672;-75
2023/01/15 07:34:52;;;;;;;1.92;0.90;;;;;;;5.04;100.00;99198.97;5037515;28;20578;-75
2023/01/15 07:37:18;;;;;;;2.75;0.60;;;;;;;5.02;100.00;99209.75;5039101;28;20212;-76
2023/01/15 07:39:45;;;;;;;1.30;0.60;;;;;;;5.10;100.00;99209.41;5054393;28;20196;-76
2023/01/15 07:50:24;;;;;;;3.45;0.80;;;;;;;4.99;100.00;99218.72;5055881;28;20244;-77
2023/01/15 07:52:52;;;;;;;2.38;0.80;;;;;;;5.08;100.00;99229.94;5056751;28;20574;-76
2023/01/15 07:55:18;;;;;;;5.13;1.10;;;;;;;5.04;100.00;99220.31;5055940;28;20255;-76
2023/01/15 07:57:45;;;;;;;2.85;1.00;;;;;;;5.15;100.00;99224.28;5055034;28;20685;-77
2023/01/15 08:00:15;;;;;;;3.50;1.08;;;;;;;5.23;100.00;99224.84;5055495;28;20309;-76
2023/01/15 08:02:43;;;;;;;1.83;1.20;;;;;;;5.28;100.00;99229.97;5057072;28;20202;-75
2023/01/15 08:05:11;;;;;;;1.65;0.93;;;;;;;5.27;100.00;99238.03;5058789;28;20205;-76
2023/01/15 08:07:39;;;;;;;1.30;0.80;;;;;;;5.30;100.00;99244.13;5055095;28;20284;-75
2023/01/15 08:10:07;;;;;;;2.60;0.80;;;;;;;5.30;100.00;99238.78;5056057;28;20244;-76
2023/01/15 08:15:18;;;;;;;1.45;0.70;;;;;;;5.40;100.00;99239.25;5045653;28;20224;-76
2023/01/15 08:17:46;;;;;;;1.48;0.70;;;;;;;5.35;100.00;99246.59;5046721;28;20202;-77
2023/01/15 08:20:15;;;;;;;1.20;0.65;;;;;;;5.35;100.00;99246.59;5037533;28;20317;-76
2023/01/15 08:22:43;;;;;;;4.57;0.80;;;;;;;5.33;100.00;99259.16;5042071;28;20201;-75
2023/01/15 08:25:16;;;;;;;1.20;0.68;;;;;;;5.33;100.00;99248.47;5042145;28;20238;-76
2023/01/15 08:27:43;;;;;;;1.30;0.80;;;;;;;5.33;100.00;99248.47;5040275;28;20186;-76
2023/01/15 08:30:13;;;;;;;2.47;0.60;;;;;;;5.28;100.00;99250.47;5035728;28;20232;-76
2023/01/15 08:32:40;;;;;;;1.17;0.70;;;;;;;5.22;100.00;99255.16;5035573;28;20202;-76
2023/01/15 08:35:08;;;;;;;2.28;0.90;;;;;;;5.23;100.00;99254.19;5038057;28;20226;-76
2023/01/15 08:37:34;;;;;;;1.63;0.70;;;;;;;5.22;100.00;99263.16;5034644;28;20684;-76
2023/01/15 08:40:03;;;;;;;1.20;0.70;;;;;;;5.19;100.00;99257.91;5036097;28;20224;-77
2023/01/15 08:42:29;;;;;;;3.75;0.70;;;;;;;5.14;100.00;99251.06;5036102;28;20205;-76
2023/01/15 08:44:56;;;;;;;1.17;0.70;;;;;;;5.17;100.00;99266.94;5036523;28;20197;-76
2023/01/15 08:47:23;;;;;;;1.58;0.70;;;;;;;5.18;100.00;99272.22;5045356;28;20262;-75
2023/01/15 08:49:49;;;;;;;1.40;0.70;;;;;;;5.17;100.00;99286.47;5047650;28;20265;-76
2023/01/15 08:52:16;;;;;;;1.40;0.77;;;;;;;5.25;100.00;99286.19;5036634;28;20688;-77
2023/01/15 08:54:43;;;;;;;1.10;0.63;;;;;;;5.28;100.00;99293.19;5044168;28;20288;-78
2023/01/15 08:57:12;;;;;;;1.40;0.70;;;;;;;5.23;100.00;99296.03;5044726;28;20201;-76
2023/01/15 08:59:41;;;;;;;2.30;0.70;;;;;;;5.24;100.00;99287.09;5043677;28;20252;-74
2023/01/15 09:02:11;;;;;;;1.10;0.60;;;;;;;5.30;100.00;99289.50;5043760;28;20255;-76
2023/01/15 09:04:38;;;;;;;1.10;0.60;;;;;;;5.27;100.00;99295.00;5046538;28;20225;-75
2023/01/15 09:07:05;;;;;;;1.30;0.60;;;;;;;5.27;100.00;99288.75;5045039;28;20194;-75
2023/01/15 09:09:31;;;;;;;1.10;0.60;;;;;;;5.28;100.00;99295.84;5035283;28;20236;-78
2023/01/15 09:11:58;;;;;;;1.10;0.60;;;;;;;5.27;100.00;99303.00;5034674;28;20198;-76
2023/01/15 09:14:28;;;;;;;3.22;0.75;;;;;;;5.34;100.00;99293.78;5034615;28;20208;-76
2023/01/15 09:16:54;;;;;;;1.50;0.75;;;;;;;5.36;100.00;99299.06;5034506;28;20209;-77
2023/01/15 09:19:21;;;;;;;1.10;0.60;;;;;;;5.34;100.00;99314.28;5033274;28;20202;-76
2023/01/15 09:21:47;;;;;;;1.20;0.60;;;;;;;5.31;100.00;99311.72;5033717;28;20232;-76
2023/01/15 09:24:15;;;;;;;2.15;0.70;;;;;;;5.34;100.00;99314.28;5032678;28;20664;-77
2023/01/15 09:26:41;;;;;;;1.20;0.70;;;;;;;5.37;100.00;99307.00;5033773;28;20205;-77
2023/01/15 09:29:09;;;;;;;1.85;0.90;;;;;;;5.33;100.00;99316.06;5040385;28;20222;-74
2023/01/15 09:31:37;;;;;;;1.10;0.70;;;;;;;5.39;100.00;99325.66;5035344;28;20224;-75
2023/01/15 09:34:04;;;;;;;1.20;0.60;;;;;;;5.40;100.00;99314.03;5036755;28;20285;-75
2023/01/15 09:36:33;;;;;;;1.45;0.90;;;;;;;5.34;100.00;99331.19;5034742;28;20202;-77
2023/01/15 09:39:01;;;;;;;1.20;0.63;;;;;;;5.36;100.00;99342.66;5034239;28;20759;-75
2023/01/15 09:42:07;;;;;;;1.60;0.60;;;;;;;5.46;100.00;99337.81;5032779;28;20217;-68
2023/01/15 09:44:45;;;;;;;24.15;14.50;;;;;;;5.88;100.00;99350.31;5035792;28;20202;-72
2023/01/15 09:47:18;;;;;;;26.52;16.88;;;;;;;6.04;100.00;99354.06;5034359;28;20200;-71
2023/01/15 09:50:14;;;;;;;1.50;0.88;;;;;;;5.73;100.00;99358.97;5034813;28;20232;-76
2023/01/15 09:52:58;;;;;;;1.30;0.77;;;;;;;5.49;100.00;99356.38;5016336;28;20198;-75
2023/01/15 09:55:27;;;;;;;1.30;0.75;;;;;;;5.52;100.00;99368.75;5025339;28;20198;-74
2023/01/15 09:57:57;;;;;;;1.20;0.75;;;;;;;5.53;100.00;99362.47;5013412;28;20202;-75
2023/01/15 10:00:26;;;;;;;1.30;0.70;;;;;;;5.47;100.00;99363.56;5031513;28;20224;-75
2023/01/15 10:02:59;;;;;;;1.33;0.70;;;;;;;5.49;100.00;99351.03;5032194;28;20292;-76
2023/01/15 10:05:30;;;;;;;1.50;0.80;;;;;;;5.53;100.00;99349.09;5031721;28;20200;-74
2023/01/15 10:08:04;;;;;;;1.58;0.90;;;;;;;5.56;100.00;99354.31;5024150;28;20187;-73
2023/01/15 10:10:35;;;;;;;1.85;0.80;;;;;;;5.56;100.00;99362.31;5021973;28;20222;-75
2023/01/15 10:13:08;;;;;;;1.30;0.80;;;;;;;5.51;100.00;99358.97;5033541;28;20192;-77
2023/01/15 10:15:39;;;;;;;1.60;0.70;;;;;;;5.56;100.00;99354.31;5019673;28;20337;-75
2023/01/15 10:18:15;;;;;;;1.88;1.00;;;;;;;5.59;100.00;99354.19;5026063;28;20261;-74
2023/01/15 10:21:01;;;;;;;1.10;0.60;;;;;;;5.59;100.00;99357.72;5042907;28;20245;-74
2023/01/15 10:23:38;;;;;;;1.95;1.00;;;;;;;5.57;100.00;99370.28;5041552;28;20197;-75
2023/01/15 10:26:17;;;;;;;1.20;0.70;;;;;;;5.57;100.00;99370.28;5034665;28;20723;-75
2023/01/15 10:28:59;;;;;;;2.00;0.63;;;;;;;5.58;100.00;99349.78;5043461;28;20225;-75
2023/01/15 10:32:00;;;;;;;1.90;0.70;;;;;;;5.64;100.00;99355.72;5032916;28;20229;-75
2023/01/15 10:34:51;;;;;;;1.38;0.80;;;;;;;5.64;100.00;99352.19;4971346;28;20287;-76
2023/01/15 10:37:25;;;;;;;1.35;0.70;;;;;;;5.63;100.00;99347.78;4973758;28;20214;-75
2023/01/15 10:40:09;;;;;;;1.67;0.80;;;;;;;5.69;100.00;99349.34;4985653;28;20220;-74
2023/01/15 10:42:43;;;;;;;2.17;0.80;;;;;;;5.73;100.00;99349.13;4976578;28;20290;-75
2023/01/15 10:45:16;;;;;;;1.95;0.90;;;;;;;5.73;100.00;99357.16;4972662;28;20203;-75
2023/01/15 10:47:44;;;;;;;3.80;1.25;;;;;;;5.72;100.00;99358.09;4970797;28;20627;-75
2023/01/15 10:50:18;;;;;;;1.10;0.60;;;;;;;5.75;100.00;99357.09;4972078;28;20701;-73
2023/01/15 10:52:49;;;;;;;1.27;0.60;;;;;;;5.76;100.00;99349.00;4985351;28;20203;-75
2023/01/15 10:55:20;;;;;;;1.98;1.08;;;;;;;5.74;100.00;99336.63;4985079;28;20263;-75
2023/01/15 10:57:53;;;;;;;1.38;0.73;;;;;;;5.69;100.00;99330.63;4963828;28;20238;-75
2023/01/15 11:00:23;;;;;;;1.10;0.60;;;;;;;5.68;100.00;99331.59;4975764;28;20228;-75
2023/01/15 11:02:54;;;;;;;2.05;0.70;;;;;;;5.64;100.00;99337.03;4970138;28;20603;-75
2023/01/15 11:05:22;;;;;;;1.33;0.60;;;;;;;5.69;100.00;99342.19;4969948;28;20274;-75
2023/01/15 11:07:50;;;;;;;1.42;0.80;;;;;;;5.69;100.00;99357.34;4969413;28;20206;-78
2023/01/15 11:10:22;;;;;;;1.50;0.70;;;;;;;5.74;100.00;99366.03;4997039;28;20313;-79
2023/01/15 11:21:14;;;;;;;1.58;1.08;;;;;;;5.72;100.00;99368.78;5036595;28;20221;-75
2023/01/15 11:23:41;;;;;;;1.60;0.80;;;;;;;5.74;100.00;99380.25;5036662;28;20694;-74
2023/01/15 11:26:09;;;;;;;2.30;1.08;;;;;;;5.78;100.00;99368.50;5035783;28;20194;-76
2023/01/15 11:28:39;;;;;;;1.45;0.80;;;;;;;5.90;100.00;99377.81;5035279;28;20202;-75
2023/01/15 11:31:06;;;;;;;2.38;0.70;;;;;;;5.93;100.00;99379.50;5036110;28;20332;-76
2023/01/15 11:33:32;;;;;;;3.40;0.80;;;;;;;5.94;100.00;99374.09;5034753;28;20202;-74
2023/01/15 11:36:00;;;;;;;3.60;0.70;;;;;;;5.96;100.00;99387.41;5035458;28;20202;-74
2023/01/15 11:38:30;;;;;;;1.30;0.70;;;;;;;5.97;100.00;99392.69;5036598;28;20224;-74
2023/01/15 11:40:59;;;;;;;2.20;0.70;;;;;;;5.94;100.00;99395.47;5036107;28;20312;-75
2023/01/15 11:51:56;;;;;;;1.38;0.70;;;;;;;6.32;100.00;99402.78;5045516;28;20205;-74
2023/01/15 11:54:26;;;;;;;1.67;0.80;;;;;;;6.29;100.00;99395.78;5042331;28;20202;-75
2023/01/15 11:56:52;;;;;;;1.42;0.65;;;;;;;6.33;100.00;99386.69;5038681;28;20690;-75
2023/01/15 11:59:21;;;;;;;1.70;0.90;;;;;;;6.44;100.00;99405.81;5036725;28;20288;-75
2023/01/15 12:01:56;;;;;;;1.40;1.00;;;;;;;6.43;100.00;99398.69;5042256;28;20210;-74
2023/01/15 12:04:27;;;;;;;2.00;0.70;;;;;;;6.26;100.00;99386.09;5053916;28;20197;-74
2023/01/15 12:06:54;;;;;;;2.20;0.80;;;;;;;6.64;100.00;99391.50;5052653;28;20206;-74
2023/01/15 12:09:31;;;;;;;12.32;7.93;;;;;;;8.26;100.00;99371.16;5047628;28;20266;-72
2023/01/15 12:12:09;;;;;;;3.65;1.00;;;;;;;8.87;100.00;99350.94;5043291;28;20540;-76
2023/01/15 12:15:05;;;;;;;2.65;1.27;;;;;;;9.31;100.00;99346.69;5041740;28;20186;-74
2023/01/15 12:17:48;;;;;;;3.35;1.00;;;;;;;9.70;100.00;99346.22;5037898;28;20198;-76
2023/01/15 12:20:24;;;;;;;1.95;1.02;;;;;;;10.53;100.00;99352.00;5029774;28;20304;-75
2023/01/15 12:23:10;;;;;;;1.88;1.00;;;;;;;10.10;100.00;99345.66;5024117;28;20307;-80
2023/01/15 12:25:53;;;;;;;2.00;1.10;;;;;;;10.27;100.00;99342.84;5025673;28;20230;-80
2023/01/15 12:28:24;;;;;;;2.60;1.02;;;;;;;11.01;100.00;99325.66;5048240;28;20236;-77
2023/01/15 12:31:00;;;;;;;1.20;0.80;;;;;;;9.49;100.00;99337.56;5052551;28;20220;-76